Time;durP1;ratioP1;P1;durP2;ratioP2;P2;SDS_P1;SDS_P2;PMS_P1;PMS_P2;Temp;Humidity;BMP_temperature;BMP_pressure;BME280_temperature;BME280_humidity;BME280_pressure;Samples;Min_cycle;Max_cycle;Signal;HPM_P1;HPM_P2
2021/11/26 00:00:05;;;;;;;10.53;9.73;;;6.90;75.60;;;;;;5031617;28;20053;-88
2021/11/26 00:02:31;;;;;;;9.20;8.80;;;6.90;75.60;;;;;;5016353;28;20041;-90
2021/11/26 00:04:57;;;;;;;8.90;8.50;;;6.90;75.70;;;;;;5034243;28;20026;-90
2021/11/26 00:07:24;;;;;;;9.20;8.80;;;6.90;75.70;;;;;;5000590;28;20052;-90
2021/11/26 00:09:53;;;;;;;9.13;8.73;;;6.90;75.70;;;;;;5034277;28;20044;-90
2021/11/26 00:12:19;;;;;;;8.97;8.57;;;6.80;75.60;;;;;;5033381;28;20033;-90
2021/11/26 00:17:27;;;;;;;;;;;6.80;75.60;;;;;;5018148;28;20041;-89
2021/11/26 00:19:53;;;;;;;8.73;8.33;;;6.80;75.70;;;;;;5016171;28;20397;-89
2021/11/26 00:22:19;;;;;;;9.30;8.90;;;6.80;75.70;;;;;;5013868;28;20391;-89
2021/11/26 00:24:45;;;;;;;8.77;8.37;;;6.70;75.60;;;;;;5016108;28;20029;-89
2021/11/26 00:27:11;;;;;;;8.93;8.53;;;6.70;75.60;;;;;;5015445;28;20033;-89
2021/11/26 00:29:38;;;;;;;8.93;8.53;;;6.70;75.70;;;;;;5016492;28;20030;-91
2021/11/26 00:32:04;;;;;;;9.13;8.70;;;6.60;75.70;;;;;;5033025;28;20040;-91
2021/11/26 00:34:30;;;;;;;8.67;8.27;;;6.60;75.70;;;;;;5015997;28;20032;-91
2021/11/26 00:36:56;;;;;;;9.00;8.60;;;6.60;75.80;;;;;;5032284;28;20410;-91
2021/11/26 00:39:22;;;;;;;9.10;8.60;;;6.50;75.70;;;;;;5033406;28;20033;-90
2021/11/26 00:41:48;;;;;;;7.90;7.53;;;6.50;75.70;;;;;;5015339;28;20044;-90
2021/11/26 00:44:14;;;;;;;9.30;8.70;;;6.50;75.80;;;;;;5015616;28;20037;-90
2021/11/26 00:46:40;;;;;;;9.20;8.70;;;6.50;75.80;;;;;;5032988;28;20398;-91
2021/11/26 00:49:07;;;;;;;8.30;7.90;;;6.50;75.80;;;;;;5033823;28;20272;-89
2021/11/26 00:51:33;;;;;;;8.40;7.90;;;6.50;75.80;;;;;;5033317;28;20054;-91
2021/11/26 00:53:59;;;;;;;8.67;8.27;;;6.40;75.70;;;;;;4998639;28;20393;-89
2021/11/26 00:56:25;;;;;;;8.87;8.47;;;6.40;75.70;;;;;;5014658;28;20033;-91
2021/11/26 00:58:51;;;;;;;8.77;8.37;;;6.40;75.70;;;;;;5002527;28;20034;-91
2021/11/26 01:01:17;;;;;;;9.10;8.63;;;6.40;75.70;;;;;;5032532;28;20041;-89
2021/11/26 01:03:43;;;;;;;9.17;8.67;;;6.40;75.70;;;;;;4999623;28;20033;-90
2021/11/26 01:06:09;;;;;;;8.30;7.90;;;6.50;75.70;;;;;;5032876;28;20033;-90
2021/11/26 01:08:36;;;;;;;8.87;8.47;;;6.50;75.60;;;;;;5032868;28;20029;-90
2021/11/26 01:11:02;;;;;;;8.67;8.27;;;6.50;75.60;;;;;;4998559;28;20025;-89
2021/11/26 01:13:28;;;;;;;8.47;8.07;;;6.50;75.50;;;;;;4999665;28;20044;-90
2021/11/26 01:15:54;;;;;;;9.07;8.57;;;6.50;75.50;;;;;;5015358;28;20399;-90
2021/11/26 01:18:20;;;;;;;8.53;8.13;;;6.50;75.50;;;;;;5014890;28;20041;-90
2021/11/26 01:20:47;;;;;;;9.13;8.60;;;6.40;75.40;;;;;;4994264;28;20407;-90
2021/11/26 01:23:13;;;;;;;9.10;8.60;;;6.50;75.50;;;;;;5022507;28;20037;-90
2021/11/26 01:25:40;;;;;;;8.70;8.30;;;6.50;75.40;;;;;;5014916;28;20037;-90
2021/11/26 01:28:07;;;;;;;8.63;8.23;;;6.50;75.40;;;;;;5032440;28;20041;-89
2021/11/26 01:30:39;;;;;;;8.90;8.50;;;6.50;75.40;;;;;;5014095;28;20029;-90
2021/11/26 01:33:09;;;;;;;9.03;8.63;;;6.40;75.40;;;;;;5015649;28;20025;-91
2021/11/26 01:35:36;;;;;;;8.90;8.50;;;6.40;75.40;;;;;;5014579;28;20045;-90
2021/11/26 01:38:04;;;;;;;9.50;9.00;;;6.40;75.40;;;;;;4998525;28;20025;-89
2021/11/26 01:40:31;;;;;;;9.47;8.87;;;6.40;75.50;;;;;;5032419;28;20409;-89
2021/11/26 01:42:58;;;;;;;9.00;8.53;;;6.40;75.50;;;;;;5032367;28;20040;-89
2021/11/26 01:45:24;;;;;;;10.27;9.43;;;6.40;75.50;;;;;;4998041;28;20033;-90
2021/11/26 01:47:50;;;;;;;9.10;8.70;;;6.40;75.50;;;;;;4998054;28;20390;-89
2021/11/26 01:50:17;;;;;;;9.53;9.13;;;6.30;75.40;;;;;;4997795;28;20262;-90
2021/11/26 01:52:44;;;;;;;8.57;8.17;;;6.40;75.50;;;;;;5031084;28;20121;-89
2021/11/26 01:55:10;;;;;;;9.67;9.17;;;6.30;75.40;;;;;;5014474;28;20409;-91
2021/11/26 01:57:36;;;;;;;9.20;8.80;;;6.30;75.40;;;;;;5014066;28;20036;-90
2021/11/26 02:00:09;;;;;;;9.00;8.60;;;6.30;75.40;;;;;;5032054;28;20045;-84
2021/11/26 02:02:35;;;;;;;8.70;8.30;;;6.40;75.50;;;;;;4981124;28;20054;-91
2021/11/26 02:05:01;;;;;;;9.67;9.17;;;6.30;75.40;;;;;;4995032;28;20046;-90
2021/11/26 02:07:27;;;;;;;8.73;8.33;;;6.30;75.40;;;;;;5031451;28;20041;-89
2021/11/26 02:09:53;;;;;;;9.10;8.70;;;6.30;75.40;;;;;;5032360;28;20034;-91
2021/11/26 02:12:20;;;;;;;9.40;9.00;;;6.30;75.40;;;;;;4997724;28;20037;-90
2021/11/26 02:14:46;;;;;;;8.90;8.50;;;6.30;75.40;;;;;;5013945;28;20033;-90
2021/11/26 02:17:13;;;;;;;8.80;8.40;;;6.30;75.50;;;;;;5013204;28;20029;-90
2021/11/26 02:19:39;;;;;;;9.30;8.90;;;6.30;75.40;;;;;;4998314;28;20045;-90
2021/11/26 02:22:06;;;;;;;9.07;8.67;;;6.30;75.40;;;;;;5013055;28;20358;-90
2021/11/26 02:24:32;;;;;;;9.30;8.90;;;6.30;75.50;;;;;;4981506;28;20056;-89
2021/11/26 02:26:58;;;;;;;10.47;9.60;;;6.30;75.50;;;;;;5030723;28;20033;-90
2021/11/26 02:29:24;;;;;;;8.90;8.40;;;6.30;75.50;;;;;;4998007;28;20026;-91
2021/11/26 02:31:50;;;;;;;8.70;8.30;;;6.30;75.50;;;;;;4979055;28;20044;-91
2021/11/26 02:34:17;;;;;;;8.83;8.43;;;6.30;75.50;;;;;;5012263;28;20034;-91
2021/11/26 02:36:43;;;;;;;9.00;8.60;;;6.20;75.40;;;;;;4997441;28;20426;-90
2021/11/26 02:39:09;;;;;;;9.20;8.70;;;6.30;75.50;;;;;;5013838;28;20038;-91
2021/11/26 02:41:39;;;;;;;8.60;8.20;;;6.30;75.50;;;;;;5030912;28;20040;-91
2021/11/26 02:44:05;;;;;;;9.20;8.50;;;6.20;75.40;;;;;;4997603;28;20029;-90
2021/11/26 02:46:32;;;;;;;8.73;8.33;;;6.20;75.40;;;;;;5013249;28;20038;-90
2021/11/26 02:48:58;;;;;;;8.70;8.30;;;6.20;75.40;;;;;;5014453;28;20025;-90
2021/11/26 02:51:24;;;;;;;8.70;8.20;;;6.20;75.40;;;;;;5030603;28;20028;-90
2021/11/26 02:53:50;;;;;;;9.37;8.80;;;6.20;75.50;;;;;;5013869;28;20390;-90
2021/11/26 02:56:16;;;;;;;9.37;8.87;;;6.20;75.40;;;;;;4995643;28;20398;-90
2021/11/26 02:58:42;;;;;;;8.40;8.00;;;6.20;75.40;;;;;;5013638;28;20033;-90
2021/11/26 03:01:08;;;;;;;8.90;8.50;;;6.20;75.40;;;;;;5012899;28;20483;-91
2021/11/26 03:03:34;;;;;;;8.80;8.40;;;6.20;75.40;;;;;;4990119;28;20056;-90
2021/11/26 03:06:02;;;;;;;9.27;8.77;;;6.20;75.40;;;;;;5016394;28;20044;-91
2021/11/26 03:08:29;;;;;;;8.63;8.23;;;6.20;75.40;;;;;;4991838;28;20037;-90
2021/11/26 03:10:56;;;;;;;8.57;8.17;;;6.20;76.10;;;;;;5011105;28;20446;-90
2021/11/26 03:13:22;;;;;;;8.40;8.00;;;6.30;75.30;;;;;;5027402;28;20033;-90
2021/11/26 03:15:48;;;;;;;8.60;8.20;;;6.30;75.30;;;;;;5028696;28;20052;-91
2021/11/26 03:18:17;;;;;;;10.03;9.53;;;6.30;75.30;;;;;;4995254;28;20060;-91
2021/11/26 03:20:44;;;;;;;8.90;8.50;;;6.30;75.20;;;;;;5011000;28;20037;-90
2021/11/26 03:23:11;;;;;;;8.67;8.27;;;6.30;75.20;;;;;;5028074;28;20053;-90
2021/11/26 03:25:37;;;;;;;9.87;9.13;;;6.30;75.20;;;;;;4993824;28;20033;-89
2021/11/26 03:28:03;;;;;;;8.90;8.50;;;6.30;75.20;;;;;;4994125;28;20041;-90
2021/11/26 03:30:29;;;;;;;8.90;8.50;;;6.30;75.30;;;;;;5008994;28;20050;-91
2021/11/26 03:32:56;;;;;;;8.90;8.50;;;6.30;75.30;;;;;;5028600;28;20033;-92
2021/11/26 03:35:23;;;;;;;8.90;8.40;;;6.30;75.30;;;;;;5026139;28;20038;-91
2021/11/26 03:37:49;;;;;;;8.50;8.10;;;6.30;75.30;;;;;;4996765;28;20036;-92
2021/11/26 03:40:17;;;;;;;8.60;8.20;;;6.30;75.30;;;;;;4997163;28;20029;-93
2021/11/26 03:42:44;;;;;;;9.00;8.60;;;6.30;75.30;;;;;;5013241;28;20041;-92
2021/11/26 03:45:10;;;;;;;8.33;7.93;;;6.30;75.30;;;;;;4996517;28;20030;-91
2021/11/26 03:47:36;;;;;;;9.83;8.93;;;6.30;75.30;;;;;;5012847;28;20064;-93
2021/11/26 03:50:04;;;;;;;8.60;8.20;;;6.30;75.30;;;;;;5030497;28;20078;-93
2021/11/26 03:52:30;;;;;;;8.70;8.30;;;6.30;75.20;;;;;;5030712;28;20034;-92
2021/11/26 03:54:56;;;;;;;9.07;8.43;;;6.30;75.20;;;;;;5013598;28;20034;-92
2021/11/26 03:57:22;;;;;;;9.23;8.50;;;6.30;75.20;;;;;;5013134;28;20385;-92
2021/11/26 03:59:48;;;;;;;8.40;8.00;;;6.40;75.20;;;;;;5014102;28;20577;-93
2021/11/26 04:02:14;;;;;;;8.30;7.90;;;6.40;75.20;;;;;;5032741;28;20053;-88
2021/11/26 04:04:40;;;;;;;8.77;8.37;;;6.30;75.20;;;;;;4997158;28;20499;-92
2021/11/26 04:07:07;;;;;;;9.07;8.27;;;6.30;75.20;;;;;;4997082;28;20390;-91
2021/11/26 04:09:33;;;;;;;8.53;8.13;;;6.30;75.20;;;;;;4997305;28;20513;-91
2021/11/26 04:11:59;;;;;;;10.17;9.43;;;6.30;75.10;;;;;;5030619;28;20025;-91
2021/11/26 04:14:25;;;;;;;8.50;8.10;;;6.30;75.10;;;;;;5030678;28;20040;-92
2021/11/26 04:16:52;;;;;;;9.00;8.53;;;6.30;75.20;;;;;;5013827;28;20029;-91
2021/11/26 04:19:18;;;;;;;8.70;8.30;;;6.40;75.20;;;;;;5034305;28;20344;-91
2021/11/26 04:21:44;;;;;;;8.30;7.90;;;6.30;75.10;;;;;;5000223;28;20033;-92
2021/11/26 04:24:10;;;;;;;8.90;8.50;;;6.30;75.10;;;;;;5016751;28;20041;-92
2021/11/26 04:26:36;;;;;;;9.43;8.93;;;6.30;75.20;;;;;;4999788;28;20044;-92
2021/11/26 04:29:02;;;;;;;9.40;8.80;;;6.30;75.20;;;;;;5016801;28;20038;-91
2021/11/26 04:31:28;;;;;;;8.57;8.17;;;6.30;75.20;;;;;;4998011;28;20049;-92
2021/11/26 04:33:54;;;;;;;8.03;7.63;;;6.30;75.20;;;;;;5016742;28;20033;-92
2021/11/26 04:36:22;;;;;;;8.80;8.40;;;6.30;75.20;;;;;;4999261;28;20047;-92
2021/11/26 04:38:48;;;;;;;9.60;9.10;;;6.30;75.20;;;;;;5000454;28;20041;-92
2021/11/26 04:41:14;;;;;;;8.60;8.20;;;6.30;75.20;;;;;;5016080;28;20034;-91
2021/11/26 04:43:40;;;;;;;8.53;8.13;;;6.20;75.10;;;;;;5016164;28;20094;-91
2021/11/26 04:46:06;;;;;;;8.57;8.17;;;6.20;75.10;;;;;;4998456;28;20040;-92
2021/11/26 04:48:32;;;;;;;8.60;8.20;;;6.30;76.00;;;;;;5033498;28;20079;-92
2021/11/26 04:50:58;;;;;;;9.10;8.60;;;6.20;75.20;;;;;;5032961;28;20029;-92
2021/11/26 04:53:24;;;;;;;9.20;8.80;;;6.20;75.30;;;;;;5034097;28;20036;-93
2021/11/26 04:55:50;;;;;;;8.83;8.43;;;6.20;75.30;;;;;;5015611;28;20037;-92
2021/11/26 04:58:16;;;;;;;9.87;9.17;;;6.10;75.30;;;;;;5033666;28;20470;-92
2021/11/26 05:00:43;;;;;;;9.13;8.67;;;6.10;75.40;;;;;;5016027;28;20037;-92
2021/11/26 05:03:09;;;;;;;8.70;8.30;;;6.10;75.40;;;;;;4999158;28;20085;-92
2021/11/26 05:05:35;;;;;;;8.60;8.20;;;6.00;75.40;;;;;;5000009;28;20037;-93
2021/11/26 05:08:01;;;;;;;9.10;8.70;;;6.00;75.40;;;;;;5033300;28;20097;-92
2021/11/26 05:10:27;;;;;;;8.93;8.43;;;6.00;75.50;;;;;;5033389;28;20033;-92
2021/11/26 05:12:58;;;;;;;9.47;8.97;;;6.00;75.50;;;;;;5033805;28;20037;-93
2021/11/26 05:15:30;;;;;;;9.15;8.30;;;5.90;75.50;;;;;;5015967;28;20033;-92
2021/11/26 05:17:58;;;;;;;9.43;8.90;;;5.90;75.50;;;;;;5032945;28;20029;-91
2021/11/26 05:20:25;;;;;;;8.93;8.47;;;5.90;75.50;;;;;;4999256;28;20028;-92
2021/11/26 05:22:52;;;;;;;44.00;9.03;;;5.90;75.60;;;;;;5015597;28;20363;-92
2021/11/26 05:25:18;;;;;;;8.90;8.50;;;5.90;75.60;;;;;;5007305;28;20053;-92
2021/11/26 05:27:44;;;;;;;8.30;7.90;;;5.90;75.60;;;;;;5033189;28;20040;-92
2021/11/26 05:30:10;;;;;;;9.13;8.67;;;5.80;75.50;;;;;;5031691;28;20197;-92
2021/11/26 05:32:37;;;;;;;9.10;8.70;;;5.80;75.60;;;;;;5015333;28;20033;-92
2021/11/26 05:35:06;;;;;;;9.10;8.70;;;5.80;75.50;;;;;;5015233;28;20026;-91
2021/11/26 05:37:32;;;;;;;8.43;8.03;;;5.80;75.60;;;;;;5015486;28;20044;-91
2021/11/26 05:39:58;;;;;;;8.70;8.30;;;5.80;75.60;;;;;;5015803;28;20037;-93
2021/11/26 05:42:24;;;;;;;8.50;8.10;;;5.70;75.50;;;;;;5031982;28;20081;-92
2021/11/26 05:44:50;;;;;;;8.73;8.33;;;5.70;75.50;;;;;;5030502;28;20033;-92
2021/11/26 05:47:16;;;;;;;8.53;8.03;;;5.70;75.50;;;;;;5012215;28;20494;-92
2021/11/26 05:49:42;;;;;;;9.03;8.53;;;5.70;75.50;;;;;;5030696;28;20044;-91
2021/11/26 05:52:08;;;;;;;9.63;9.03;;;5.70;75.60;;;;;;5032800;28;20037;-92
2021/11/26 05:54:35;;;;;;;8.50;8.10;;;5.70;75.50;;;;;;5028120;28;20030;-92
2021/11/26 05:57:01;;;;;;;8.90;8.43;;;5.70;75.50;;;;;;5009673;28;20033;-92
2021/11/26 05:59:27;;;;;;;9.03;8.63;;;5.70;75.50;;;;;;5012625;28;20029;-92
2021/11/26 06:01:53;;;;;;;9.00;8.50;;;5.70;75.50;;;;;;5014275;28;20033;-92
2021/11/26 06:04:19;;;;;;;8.67;8.27;;;5.70;75.50;;;;;;5012065;28;20044;-86
2021/11/26 06:06:45;;;;;;;8.93;8.43;;;5.70;75.60;;;;;;5012352;28;20044;-88
2021/11/26 06:09:11;;;;;;;8.93;8.53;;;5.70;75.50;;;;;;5013858;28;20037;-86
2021/11/26 06:11:37;;;;;;;8.93;8.53;;;5.70;75.50;;;;;;5027300;28;20033;-85
2021/11/26 06:14:03;;;;;;;8.57;8.17;;;5.70;75.50;;;;;;5012376;28;20052;-85
2021/11/26 06:16:30;;;;;;;8.97;8.57;;;5.70;75.50;;;;;;5010939;28;20030;-85
2021/11/26 06:18:56;;;;;;;9.17;8.57;;;5.70;75.50;;;;;;5031003;28;20052;-86
2021/11/26 06:21:22;;;;;;;9.13;8.73;;;5.70;75.50;;;;;;5029246;28;20033;-85
2021/11/26 06:23:48;;;;;;;9.50;9.03;;;5.70;75.50;;;;;;5028736;28;20509;-87
2021/11/26 06:26:14;;;;;;;9.30;8.83;;;5.70;75.50;;;;;;5030515;28;20022;-87
2021/11/26 06:28:40;;;;;;;8.80;8.40;;;5.70;75.50;;;;;;5019808;28;20370;-86
2021/11/26 06:31:06;;;;;;;9.43;9.03;;;5.70;75.50;;;;;;5013688;28;20040;-84
2021/11/26 06:33:32;;;;;;;9.20;8.70;;;5.70;75.50;;;;;;5010645;28;20029;-85
2021/11/26 06:35:58;;;;;;;9.30;8.90;;;5.70;75.50;;;;;;5030337;28;20418;-85
2021/11/26 06:38:24;;;;;;;8.80;8.40;;;5.70;75.50;;;;;;5029467;28;20025;-82
2021/11/26 06:40:50;;;;;;;9.90;9.03;;;5.60;75.50;;;;;;5028920;28;20025;-82
2021/11/26 06:43:16;;;;;;;10.57;9.53;;;5.60;75.50;;;;;;5011056;28;20518;-86
2021/11/26 06:45:43;;;;;;;9.60;9.10;;;5.60;75.50;;;;;;4994104;28;20041;-85
2021/11/26 06:48:10;;;;;;;9.80;9.27;;;5.60;75.50;;;;;;5026810;28;20057;-85
2021/11/26 06:50:37;;;;;;;8.83;8.43;;;5.60;75.50;;;;;;4996816;28;20466;-81
2021/11/26 06:53:04;;;;;;;9.67;9.07;;;5.60;75.50;;;;;;5028249;28;20072;-81
2021/11/26 06:55:31;;;;;;;10.70;10.10;;;5.60;75.50;;;;;;5029492;28;20394;-84
2021/11/26 06:57:57;;;;;;;9.80;9.23;;;5.60;75.50;;;;;;5013831;28;20030;-86
2021/11/26 07:00:23;;;;;;;9.53;9.03;;;5.60;75.50;;;;;;5028462;28;20033;-84
2021/11/26 07:02:49;;;;;;;10.03;9.10;;;5.60;75.50;;;;;;5012379;28;20041;-83
2021/11/26 07:05:15;;;;;;;9.90;9.27;;;5.60;75.50;;;;;;5012204;28;20386;-83
2021/11/26 07:07:42;;;;;;;9.13;8.73;;;5.60;75.50;;;;;;5030725;28;20040;-88
2021/11/26 07:10:09;;;;;;;9.43;8.93;;;5.60;75.50;;;;;;4979713;28;20060;-93
2021/11/26 07:12:35;;;;;;;9.17;8.77;;;5.60;75.50;;;;;;4996092;28;20521;-88
2021/11/26 07:15:02;;;;;;;8.47;8.07;;;5.60;75.50;;;;;;5008817;28;20029;-87
2021/11/26 07:17:28;;;;;;;8.93;8.43;;;5.60;75.50;;;;;;4995244;28;20418;-91
2021/11/26 07:19:54;;;;;;;8.70;8.20;;;5.60;75.50;;;;;;4994598;28;20403;-92
2021/11/26 07:22:21;;;;;;;8.97;8.57;;;5.60;75.50;;;;;;5013454;28;20041;-91
2021/11/26 07:24:47;;;;;;;9.57;9.07;;;5.60;75.50;;;;;;5030544;28;20382;-93
2021/11/26 07:27:13;;;;;;;9.30;8.80;;;5.60;75.50;;;;;;5027489;28;20391;-88
2021/11/26 07:29:39;;;;;;;10.20;9.57;;;5.60;75.50;;;;;;5011799;28;20033;-87
2021/11/26 07:32:06;;;;;;;9.10;8.67;;;5.60;75.50;;;;;;4993926;28;20036;-87
2021/11/26 07:34:32;;;;;;;9.37;8.77;;;5.60;75.50;;;;;;5029926;28;20037;-86
2021/11/26 07:36:58;;;;;;;9.33;8.83;;;5.60;75.50;;;;;;5010396;28;20049;-87
2021/11/26 07:39:31;;;;;;;9.53;9.03;;;5.60;75.50;;;;;;5029428;28;20394;-95
2021/11/26 07:41:57;;;;;;;9.30;8.87;;;5.60;75.50;;;;;;5016919;28;20025;-89
2021/11/26 07:44:23;;;;;;;8.23;7.83;;;5.60;75.50;;;;;;5013911;28;20052;-92
2021/11/26 07:46:49;;;;;;;7.80;7.40;;;5.70;75.50;;;;;;5011988;28;20475;-93
2021/11/26 07:49:15;;;;;;;7.97;7.50;;;5.70;75.50;;;;;;5013247;28;20033;-92
2021/11/26 07:51:41;;;;;;;8.73;8.23;;;5.70;75.50;;;;;;5014551;28;20021;-92
2021/11/26 07:54:07;;;;;;;8.37;7.97;;;5.70;75.50;;;;;;5015975;28;20029;-92
2021/11/26 07:56:35;;;;;;;8.33;7.93;;;5.70;75.50;;;;;;5016157;28;20061;-92
2021/11/26 07:59:02;;;;;;;9.10;8.60;;;5.70;75.50;;;;;;5017605;28;20021;-93
2021/11/26 08:01:29;;;;;;;8.23;7.83;;;5.60;75.40;;;;;;5000820;28;20045;-92
2021/11/26 08:03:55;;;;;;;9.03;8.63;;;5.70;75.50;;;;;;5017982;28;20038;-87
2021/11/26 08:06:21;;;;;;;8.43;8.00;;;5.70;75.50;;;;;;5034983;28;20040;-87
2021/11/26 08:08:47;;;;;;;8.10;7.70;;;5.70;75.50;;;;;;5016679;28;20049;-86
2021/11/26 08:11:13;;;;;;;8.80;8.40;;;5.60;75.50;;;;;;5000341;28;20042;-89
2021/11/26 08:13:39;;;;;;;8.57;8.17;;;5.60;75.50;;;;;;5003559;28;20044;-92
2021/11/26 08:16:07;;;;;;;9.33;8.57;;;5.60;75.50;;;;;;5035027;28;20041;-88
2021/11/26 08:18:34;;;;;;;8.67;8.27;;;5.60;75.50;;;;;;5017834;28;20032;-86
2021/11/26 08:21:00;;;;;;;9.93;9.33;;;5.60;75.50;;;;;;5034686;28;20041;-85
2021/11/26 08:23:27;;;;;;;8.77;8.37;;;5.60;75.50;;;;;;5016887;28;20397;-90
2021/11/26 08:25:54;;;;;;;8.53;8.13;;;5.60;75.50;;;;;;5016623;28;20029;-90
2021/11/26 08:28:20;;;;;;;8.90;8.40;;;5.70;75.50;;;;;;5034361;28;20025;-76
2021/11/26 08:30:46;;;;;;;8.03;7.63;;;5.70;75.50;;;;;;5036528;28;20398;-94
2021/11/26 08:33:12;;;;;;;7.90;7.50;;;5.70;75.50;;;;;;5038411;28;20041;-93
2021/11/26 08:35:39;;;;;;;7.47;7.17;;;5.70;75.50;;;;;;5029301;28;20049;-93
2021/11/26 08:38:05;;;;;;;8.20;7.80;;;5.80;75.50;;;;;;5036768;28;20036;-93
2021/11/26 08:40:31;;;;;;;8.57;8.17;;;5.80;75.40;;;;;;5032294;28;20045;-93
2021/11/26 08:42:57;;;;;;;8.37;7.97;;;5.80;75.40;;;;;;5038894;28;20053;-95
2021/11/26 08:45:23;;;;;;;8.30;7.90;;;5.80;75.30;;;;;;5041595;28;20497;-92
2021/11/26 08:47:49;;;;;;;8.77;8.27;;;5.90;75.30;;;;;;5004569;28;20033;-93
2021/11/26 08:50:17;;;;;;;8.70;8.20;;;5.90;75.30;;;;;;5036868;28;20520;-91
2021/11/26 08:52:44;;;;;;;10.40;9.73;;;5.90;75.20;;;;;;5035039;28;20030;-88
2021/11/26 08:55:13;;;;;;;8.20;7.80;;;6.00;75.30;;;;;;5013132;28;20052;-86
2021/11/26 08:57:42;;;;;;;8.17;7.77;;;6.10;75.30;;;;;;5016380;28;20026;-91
2021/11/26 09:00:09;;;;;;;8.50;8.00;;;6.20;75.20;;;;;;5032989;28;20517;-90
2021/11/26 09:02:35;;;;;;;8.30;7.90;;;6.40;75.00;;;;;;5016057;28;20026;-91
2021/11/26 09:05:01;;;;;;;8.33;7.93;;;6.40;74.80;;;;;;4985765;28;20037;-91
2021/11/26 09:07:27;;;;;;;8.50;8.10;;;6.30;74.80;;;;;;5033929;28;20034;-91
2021/11/26 09:09:54;;;;;;;9.17;8.73;;;6.30;74.80;;;;;;5033926;28;20025;-91
2021/11/26 09:12:22;;;;;;;8.63;8.23;;;6.30;74.90;;;;;;5016166;28;20478;-91
2021/11/26 09:14:48;;;;;;;8.70;8.30;;;6.30;75.00;;;;;;5016349;28;20037;-90
2021/11/26 09:17:14;;;;;;;8.70;8.30;;;6.30;75.00;;;;;;5015047;28;20029;-92
2021/11/26 09:19:40;;;;;;;9.00;8.50;;;6.30;75.00;;;;;;4999863;28;20042;-91
2021/11/26 09:22:06;;;;;;;9.57;9.07;;;6.40;75.10;;;;;;5034005;28;20386;-90
2021/11/26 09:24:32;;;;;;;9.00;8.60;;;6.40;75.10;;;;;;5015825;28;20056;-90
2021/11/26 09:26:59;;;;;;;11.60;10.20;;;6.40;75.00;;;;;;5015761;28;20025;-90
2021/11/26 09:29:25;;;;;;;8.83;8.03;;;6.50;75.00;;;;;;5015796;28;20017;-92
2021/11/26 09:31:51;;;;;;;9.07;8.50;;;6.50;74.90;;;;;;4998366;28;20394;-91
2021/11/26 09:34:17;;;;;;;8.40;8.00;;;6.60;74.80;;;;;;5015300;28;20045;-92
2021/11/26 09:36:43;;;;;;;8.20;7.80;;;6.70;74.70;;;;;;5015864;28;20072;-90
2021/11/26 09:39:09;;;;;;;9.00;8.50;;;6.80;74.60;;;;;;5015359;28;20025;-90
2021/11/26 09:41:35;;;;;;;9.27;8.77;;;6.80;74.50;;;;;;5015476;28;20056;-91
2021/11/26 09:44:02;;;;;;;18.97;8.07;;;6.90;74.50;;;;;;5033207;28;20034;-91
2021/11/26 09:46:32;;;;;;;8.93;8.43;;;6.90;74.40;;;;;;5015080;28;20049;-90
2021/11/26 09:48:58;;;;;;;9.87;9.33;;;7.00;74.30;;;;;;5016399;28;20029;-90
2021/11/26 09:51:24;;;;;;;9.13;8.63;;;7.10;74.20;;;;;;4998718;28;20037;-90
2021/11/26 09:53:50;;;;;;;9.40;9.00;;;7.20;74.20;;;;;;5015300;28;20470;-90
2021/11/26 09:56:16;;;;;;;9.68;9.18;;;7.30;74.10;;;;;;4999041;28;20389;-91
2021/11/26 09:58:43;;;;;;;9.60;9.07;;;7.40;74.00;;;;;;5015323;28;20040;-90
2021/11/26 10:01:09;;;;;;;9.20;8.65;;;7.50;74.00;;;;;;5014860;28;20398;-91
2021/11/26 10:03:46;;;;;;;9.57;9.15;;;7.50;73.90;;;;;;5015571;28;20052;-90
2021/11/26 10:06:24;;;;;;;9.40;9.00;;;7.50;73.90;;;;;;4998568;28;20044;-90
2021/11/26 10:09:10;;;;;;;9.68;9.20;;;7.50;73.90;;;;;;5032663;28;20031;-90
2021/11/26 10:11:49;;;;;;;9.35;8.90;;;7.50;73.90;;;;;;5000423;28;20022;-91
2021/11/26 10:14:28;;;;;;;9.45;9.00;;;7.50;73.90;;;;;;5015037;28;20026;-90
2021/11/26 10:17:16;;;;;;;10.25;9.65;;;7.50;73.90;;;;;;4999610;28;20033;-91
2021/11/26 10:19:58;;;;;;;9.25;8.85;;;7.60;73.90;;;;;;4999708;28;20033;-91
2021/11/26 10:22:31;;;;;;;9.52;9.02;;;7.60;73.90;;;;;;5032199;28;20037;-90
2021/11/26 10:25:11;;;;;;;9.88;9.38;;;7.60;73.90;;;;;;4998742;28;20049;-89
2021/11/26 10:27:48;;;;;;;9.15;8.75;;;7.70;73.90;;;;;;5015262;28;20034;-91
2021/11/26 10:30:21;;;;;;;9.48;8.80;;;7.60;73.80;;;;;;4996945;28;20052;-90
2021/11/26 10:33:06;;;;;;;9.10;8.70;;;7.60;73.90;;;;;;5032283;28;20036;-90
2021/11/26 10:35:40;;;;;;;9.38;8.98;;;7.70;73.90;;;;;;5011062;28;20041;-90
2021/11/26 10:38:07;;;;;;;8.80;8.40;;;7.70;73.80;;;;;;4995675;28;20037;-90
2021/11/26 10:40:36;;;;;;;9.27;8.88;;;7.70;73.90;;;;;;5012458;28;20037;-90
2021/11/26 10:43:03;;;;;;;9.25;8.85;;;7.80;73.80;;;;;;5013277;28;20375;-90
2021/11/26 10:59:12;;;;;;;9.40;9.00;;;8.30;73.00;;;;;;5000873;28;20029;-89
2021/11/26 11:01:45;;;;;;;11.55;10.95;;;8.40;73.00;;;;;;5011733;28;20030;-90
2021/11/26 11:04:15;;;;;;;10.68;10.10;;;8.50;73.10;;;;;;5010810;28;20037;-91
2021/11/26 11:06:41;;;;;;;10.20;9.50;;;8.50;73.00;;;;;;5011826;28;20026;-90
2021/11/26 11:09:08;;;;;;;9.32;8.93;;;8.70;73.00;;;;;;5010989;28;20045;-90
2021/11/26 11:11:34;;;;;;;9.55;9.15;;;8.80;72.80;;;;;;4978645;28;20057;-90
2021/11/26 11:14:24;;;;;;;11.88;10.88;;;9.00;72.50;;;;;;5010890;28;20034;-91
2021/11/26 11:16:53;;;;;;;10.80;10.13;;;9.20;72.30;;;;;;4996556;28;20499;-90
2021/11/26 11:19:19;;;;;;;10.52;10.02;;;9.30;72.10;;;;;;4994477;28;20033;-90
2021/11/26 11:21:46;;;;;;;11.05;10.55;;;9.30;72.00;;;;;;4992640;28;20045;-90
2021/11/26 11:24:13;;;;;;;11.13;10.63;;;9.30;72.00;;;;;;5010747;28;20049;-90
2021/11/26 11:26:45;;;;;;;11.13;10.52;;;9.30;72.10;;;;;;5012691;28;20415;-90
2021/11/26 11:29:17;;;;;;;11.55;10.85;;;9.30;72.10;;;;;;5013971;28;20049;-91
2021/11/26 11:31:43;;;;;;;11.40;10.85;;;9.30;72.10;;;;;;5014380;28;20094;-92
2021/11/26 11:34:10;;;;;;;11.32;10.82;;;9.30;72.20;;;;;;4998274;28;20356;-90
2021/11/26 11:36:37;;;;;;;11.55;10.95;;;9.30;72.20;;;;;;5014820;28;20042;-90
2021/11/26 11:39:04;;;;;;;12.10;11.50;;;9.30;72.20;;;;;;5014396;28;20037;-91
2021/11/26 11:41:30;;;;;;;11.60;11.05;;;9.30;72.20;;;;;;4997532;28;20045;-90
2021/11/26 11:43:56;;;;;;;10.80;10.30;;;9.30;72.30;;;;;;5014531;28;20042;-90
2021/11/26 11:46:22;;;;;;;10.85;10.25;;;9.30;72.40;;;;;;5015155;28;20026;-90
2021/11/26 11:48:53;;;;;;;10.38;9.88;;;9.30;72.40;;;;;;5014620;28;20026;-91
2021/11/26 11:51:21;;;;;;;11.48;10.88;;;9.30;72.40;;;;;;5014326;28;20049;-91
2021/11/26 11:53:47;;;;;;;11.25;10.70;;;9.30;72.40;;;;;;5014181;28;20390;-92
2021/11/26 11:56:15;;;;;;;10.25;9.75;;;9.30;72.40;;;;;;5014302;28;20026;-90
2021/11/26 11:58:54;;;;;;;10.60;10.10;;;9.30;72.40;;;;;;4997900;28;20029;-90
2021/11/26 12:01:24;;;;;;;10.95;10.45;;;9.40;72.40;;;;;;5014943;28;20517;-90
2021/11/26 12:03:51;;;;;;;10.30;9.80;;;9.40;72.40;;;;;;5013985;28;20049;-91
2021/11/26 12:06:17;;;;;;;10.43;9.93;;;9.40;72.40;;;;;;5014019;28;20029;-91
2021/11/26 12:08:55;;;;;;;11.10;10.55;;;9.40;72.30;;;;;;5015082;28;20041;-90
2021/11/26 12:11:25;;;;;;;10.50;10.00;;;9.50;72.30;;;;;;5013924;28;20022;-91
2021/11/26 12:14:03;;;;;;;10.40;9.90;;;9.50;72.20;;;;;;5015107;28;20026;-90
2021/11/26 12:16:30;;;;;;;10.15;9.65;;;9.60;72.20;;;;;;4997071;28;20398;-90
2021/11/26 12:18:56;;;;;;;10.95;10.35;;;9.60;72.20;;;;;;5014333;28;20041;-90
2021/11/26 12:21:29;;;;;;;10.45;9.95;;;9.60;72.00;;;;;;5013726;28;20026;-89
2021/11/26 12:24:14;;;;;;;11.48;10.98;;;9.60;72.00;;;;;;4997617;28;20410;-90
2021/11/26 12:26:56;;;;;;;11.60;11.10;;;9.70;72.10;;;;;;5014838;28;20029;-90
2021/11/26 12:29:40;;;;;;;11.50;10.77;;;9.70;72.10;;;;;;5013294;28;20033;-89
2021/11/26 12:32:14;;;;;;;11.20;10.70;;;9.80;72.10;;;;;;4996404;28;20030;-91
2021/11/26 12:34:41;;;;;;;11.60;11.10;;;9.80;72.00;;;;;;5014447;28;20060;-91
2021/11/26 12:37:19;;;;;;;11.10;10.60;;;9.90;72.00;;;;;;4996843;28;20046;-92
2021/11/26 12:39:45;;;;;;;11.88;11.38;;;9.90;71.90;;;;;;5015245;28;20046;-90
2021/11/26 12:42:12;;;;;;;11.77;11.27;;;9.90;71.90;;;;;;5013227;28;20022;-91
2021/11/26 12:44:38;;;;;;;10.90;10.40;;;9.90;71.90;;;;;;5013246;28;20589;-91
2021/11/26 12:47:07;;;;;;;11.10;10.60;;;9.90;71.90;;;;;;5012532;28;20045;-91
2021/11/26 12:52:11;;;;;;;11.38;10.85;;;9.90;72.00;;;;;;5011806;28;20382;-90
2021/11/26 12:54:42;;;;;;;11.20;10.70;;;9.90;72.10;;;;;;5013548;28;20041;-87
2021/11/26 12:57:30;;;;;;;11.20;10.70;;;9.90;72.10;;;;;;4996660;28;20040;-91
2021/11/26 13:00:04;;;;;;;11.32;10.80;;;9.90;72.10;;;;;;4997864;28;20479;-90
2021/11/26 13:02:33;;;;;;;11.38;10.88;;;9.90;72.10;;;;;;5012024;28;20034;-90
2021/11/26 13:05:01;;;;;;;11.48;10.88;;;10.00;72.10;;;;;;5012951;28;20033;-90
2021/11/26 13:07:28;;;;;;;11.93;11.43;;;10.00;72.10;;;;;;5012929;28;20493;-91
2021/11/26 13:10:04;;;;;;;11.70;11.20;;;10.00;72.00;;;;;;5013478;28;20347;-90
2021/11/26 13:12:39;;;;;;;11.00;10.50;;;10.10;72.00;;;;;;5012726;28;20026;-90